Terminal Aerodrome Forecast
Issued by NWS

Home | Current Version | Previous Version | Text Only | Print | Product List | Glossary On
Versions: 1 2 3 4 5 6 7 8 9 10 11 12 13
637
FTUS41 KBTV 211731
TAFMSS
TAF
KMSS 211731Z 2118/2218 VRB03KT 6SM BR VCSH OVC015
      TEMPO 2118/2122 5SM BR
     FM212200 07004KT 5SM BR VCSH OVC009
     FM220700 06005KT 6SM BR OVC008
     FM221400 05012KT P6SM OVC012=

USA.gov is the U.S. government's official web portal to all federal, state and local government web resources and services.